Stockbridge, Georgia
Current Conditions -  °F | °C
As of 5:52 AM on Tuesday 21 Oct 2014 (Local Time) from KATL Reporting Station
Clear Clear  
Wind Chill: 54°   Ceiling: Unl
Heat Index: 54°   Visibility: 10mi
Dew Point: 49°   Wind: 3mph
Humidity: 83%   Direction: 290°WNW
Pressure: 30"   Gusts: NA
Location:  33.54°N, 84.23°W
Report Text: KATL 210952Z 29003KT 10SM CLR 12/09 A3000 RMK AO2 SLP155 T01220094
Loading
Personal Weather Stations






























Interactive Weather Map
Tropical Storm Tracking
New forecast layout! Learn more

10-Day Weather Forecast

Advertisements
Track Severe Weather on mobile